Startpagina
METAR-TAF:

METAR-TAF

Vliegvelden :

Bahrein, Bahrein

Internationale luchthaven van Bahrein

breedte: 26-16N, lengte: 050-39E, hoogte: 2 m

Actueel weer

Dit bericht is 32 minuten geleden gemaakt, om 04:00 UTC
Wind 2 kt uit het westzuidwesten
Temperatuur 16°C
Vochtigheid 68%
Druk 1018 hPa
Zicht 10 km of meer
geen wolken onder 1500 m en geen cumulonimbus

METAR: OBBI 140400Z 24002KT CAVOK 16/10 Q1018 NOSIG

Tijdstip: 07:32 (04:32 UTC)

Verwachting

Dit bericht is 5 uur en het 32 minuten geleden gemaakt, om 23:00 UTC
Verwachting geldig van 14 om 00 UTC tot 15 om 06 UTC
Wind 5 kt uit het zuidwesten
Zicht 10 km of meer
geen wolken onder 1500 m en geen cumulonimbus
Wijzigt naar
van 14 om 11 UTC tot 14 om 13 UTC
Wind 12 kt uit het zuidzuidoosten

TAF: OBBI 132300Z 1400/1506 23005KT CAVOK BECMG 1411/1413 16012KT

Waarnemingen en weersverwachtingen van meer dan 4000 vliegvelden (METAR en TAF).

De beschikbare stations zijn de gele en rode punten op de kaart.

Ga met uw muis naar het station om de naam te zien.

Klik dan om waarnemingen en weersverwachtingen te zien.

kaart wijzigen: klik op de groene knoppen met een zwart kruis om in te zoomen, op de groene knop met een streepje om uit te zoomen of op de groene pijlen voor aangrenzende kaarten.


METAR-TAF: